sensor_id;sensor_type;location;lat;lon;timestamp;P1;durP1;ratioP1;P2;durP2;ratioP2
25481;SDS011;13395;50.752;4.268;2022-12-20T00:00:47;2.83;;;1.63;;
25481;SDS011;13395;50.752;4.268;2022-12-20T00:03:13;4.75;;;2.08;;
25481;SDS011;13395;50.752;4.268;2022-12-20T00:05:39;2.65;;;1.80;;
25481;SDS011;13395;50.752;4.268;2022-12-20T00:08:06;4.35;;;1.92;;
25481;SDS011;13395;50.752;4.268;2022-12-20T00:10:36;4.90;;;2.50;;
25481;SDS011;13395;50.752;4.268;2022-12-20T00:13:02;4.25;;;2.25;;
25481;SDS011;13395;50.752;4.268;2022-12-20T00:15:28;2.30;;;1.90;;
25481;SDS011;13395;50.752;4.268;2022-12-20T00:17:55;5.65;;;2.20;;
25481;SDS011;13395;50.752;4.268;2022-12-20T00:20:21;2.00;;;1.45;;
25481;SDS011;13395;50.752;4.268;2022-12-20T00:22:47;3.33;;;1.98;;
25481;SDS011;13395;50.752;4.268;2022-12-20T00:25:12;5.57;;;2.67;;
25481;SDS011;13395;50.752;4.268;2022-12-20T00:27:38;4.20;;;2.03;;
25481;SDS011;13395;50.752;4.268;2022-12-20T00:30:03;2.63;;;1.88;;
25481;SDS011;13395;50.752;4.268;2022-12-20T00:32:30;2.53;;;1.92;;
25481;SDS011;13395;50.752;4.268;2022-12-20T00:34:56;3.70;;;1.85;;
25481;SDS011;13395;50.752;4.268;2022-12-20T00:37:22;4.63;;;1.85;;
25481;SDS011;13395;50.752;4.268;2022-12-20T00:39:47;4.43;;;2.30;;
25481;SDS011;13395;50.752;4.268;2022-12-20T00:42:13;4.15;;;1.95;;
25481;SDS011;13395;50.752;4.268;2022-12-20T00:44:39;5.45;;;1.95;;
25481;SDS011;13395;50.752;4.268;2022-12-20T00:47:05;3.20;;;1.90;;
25481;SDS011;13395;50.752;4.268;2022-12-20T00:49:31;2.65;;;1.60;;
25481;SDS011;13395;50.752;4.268;2022-12-20T00:51:56;3.80;;;2.13;;
25481;SDS011;13395;50.752;4.268;2022-12-20T00:54:22;2.92;;;1.77;;
25481;SDS011;13395;50.752;4.268;2022-12-20T00:56:47;3.17;;;1.70;;
25481;SDS011;13395;50.752;4.268;2022-12-20T00:59:13;3.88;;;2.00;;
25481;SDS011;13395;50.752;4.268;2022-12-20T01:01:38;3.75;;;1.95;;
25481;SDS011;13395;50.752;4.268;2022-12-20T01:04:04;3.03;;;1.83;;
25481;SDS011;13395;50.752;4.268;2022-12-20T01:06:30;5.03;;;2.10;;
25481;SDS011;13395;50.752;4.268;2022-12-20T01:08:56;2.80;;;1.88;;
25481;SDS011;13395;50.752;4.268;2022-12-20T01:11:23;3.40;;;1.90;;
25481;SDS011;13395;50.752;4.268;2022-12-20T01:14:01;3.75;;;2.00;;
25481;SDS011;13395;50.752;4.268;2022-12-20T01:16:30;3.80;;;1.58;;
25481;SDS011;13395;50.752;4.268;2022-12-20T01:18:59;6.28;;;2.00;;
25481;SDS011;13395;50.752;4.268;2022-12-20T01:21:26;5.55;;;1.88;;
25481;SDS011;13395;50.752;4.268;2022-12-20T01:23:52;5.18;;;2.30;;
25481;SDS011;13395;50.752;4.268;2022-12-20T01:26:19;2.88;;;1.83;;
25481;SDS011;13395;50.752;4.268;2022-12-20T01:28:47;4.20;;;1.77;;
25481;SDS011;13395;50.752;4.268;2022-12-20T01:31:16;3.95;;;2.00;;
25481;SDS011;13395;50.752;4.268;2022-12-20T01:33:43;7.68;;;2.55;;
25481;SDS011;13395;50.752;4.268;2022-12-20T01:36:10;12.18;;;4.35;;
25481;SDS011;13395;50.752;4.268;2022-12-20T01:38:38;4.43;;;2.38;;
25481;SDS011;13395;50.752;4.268;2022-12-20T01:41:03;4.38;;;2.50;;
25481;SDS011;13395;50.752;4.268;2022-12-20T01:43:49;5.45;;;2.47;;
25481;SDS011;13395;50.752;4.268;2022-12-20T01:46:18;3.75;;;2.58;;
25481;SDS011;13395;50.752;4.268;2022-12-20T01:48:47;3.65;;;1.90;;
25481;SDS011;13395;50.752;4.268;2022-12-20T01:51:20;4.30;;;2.53;;
25481;SDS011;13395;50.752;4.268;2022-12-20T01:53:47;4.80;;;2.95;;
25481;SDS011;13395;50.752;4.268;2022-12-20T01:56:19;6.63;;;2.83;;
25481;SDS011;13395;50.752;4.268;2022-12-20T01:58:45;6.45;;;3.15;;
25481;SDS011;13395;50.752;4.268;2022-12-20T02:01:12;3.63;;;2.53;;
25481;SDS011;13395;50.752;4.268;2022-12-20T02:03:38;6.55;;;2.28;;
25481;SDS011;13395;50.752;4.268;2022-12-20T02:06:12;3.83;;;2.38;;
25481;SDS011;13395;50.752;4.268;2022-12-20T02:08:42;6.55;;;2.17;;
25481;SDS011;13395;50.752;4.268;2022-12-20T02:11:18;4.50;;;2.83;;
25481;SDS011;13395;50.752;4.268;2022-12-20T02:16:47;4.97;;;2.20;;
25481;SDS011;13395;50.752;4.268;2022-12-20T02:19:35;4.10;;;2.38;;
25481;SDS011;13395;50.752;4.268;2022-12-20T02:27:52;6.50;;;3.28;;
25481;SDS011;13395;50.752;4.268;2022-12-20T02:30:20;7.93;;;2.85;;
25481;SDS011;13395;50.752;4.268;2022-12-20T02:32:50;3.97;;;2.08;;
25481;SDS011;13395;50.752;4.268;2022-12-20T02:35:19;3.88;;;2.60;;
25481;SDS011;13395;50.752;4.268;2022-12-20T02:37:59;3.05;;;1.98;;
25481;SDS011;13395;50.752;4.268;2022-12-20T02:40:29;4.20;;;3.13;;
25481;SDS011;13395;50.752;4.268;2022-12-20T02:43:00;7.43;;;2.03;;
25481;SDS011;13395;50.752;4.268;2022-12-20T02:45:48;9.30;;;2.85;;
25481;SDS011;13395;50.752;4.268;2022-12-20T02:48:15;4.65;;;2.33;;
25481;SDS011;13395;50.752;4.268;2022-12-20T02:50:43;5.20;;;2.70;;
25481;SDS011;13395;50.752;4.268;2022-12-20T02:53:13;4.82;;;3.35;;
25481;SDS011;13395;50.752;4.268;2022-12-20T02:56:41;4.65;;;2.22;;
25481;SDS011;13395;50.752;4.268;2022-12-20T02:58:48;2.85;;;1.90;;
25481;SDS011;13395;50.752;4.268;2022-12-20T03:01:36;8.20;;;2.72;;
25481;SDS011;13395;50.752;4.268;2022-12-20T03:04:08;4.53;;;1.90;;
25481;SDS011;13395;50.752;4.268;2022-12-20T03:06:34;4.78;;;1.90;;
25481;SDS011;13395;50.752;4.268;2022-12-20T03:09:00;4.85;;;1.98;;
25481;SDS011;13395;50.752;4.268;2022-12-20T03:11:26;4.03;;;1.85;;
25481;SDS011;13395;50.752;4.268;2022-12-20T03:13:51;5.18;;;1.90;;
25481;SDS011;13395;50.752;4.268;2022-12-20T03:16:17;4.13;;;2.00;;
25481;SDS011;13395;50.752;4.268;2022-12-20T03:18:42;5.05;;;2.60;;
25481;SDS011;13395;50.752;4.268;2022-12-20T03:21:10;4.95;;;2.50;;
25481;SDS011;13395;50.752;4.268;2022-12-20T03:23:36;2.85;;;2.10;;
25481;SDS011;13395;50.752;4.268;2022-12-20T03:26:02;7.40;;;2.33;;
25481;SDS011;13395;50.752;4.268;2022-12-20T03:28:28;5.15;;;2.42;;
25481;SDS011;13395;50.752;4.268;2022-12-20T03:30:53;2.75;;;1.90;;
25481;SDS011;13395;50.752;4.268;2022-12-20T03:33:19;3.17;;;1.70;;
25481;SDS011;13395;50.752;4.268;2022-12-20T03:35:45;4.15;;;2.53;;
25481;SDS011;13395;50.752;4.268;2022-12-20T03:38:11;5.78;;;2.53;;
25481;SDS011;13395;50.752;4.268;2022-12-20T03:40:37;4.63;;;2.40;;
25481;SDS011;13395;50.752;4.268;2022-12-20T03:43:02;3.70;;;1.90;;
25481;SDS011;13395;50.752;4.268;2022-12-20T03:45:28;4.28;;;2.63;;
25481;SDS011;13395;50.752;4.268;2022-12-20T03:47:54;5.45;;;2.35;;
25481;SDS011;13395;50.752;4.268;2022-12-20T03:50:20;9.27;;;3.15;;
25481;SDS011;13395;50.752;4.268;2022-12-20T03:52:46;3.17;;;2.40;;
25481;SDS011;13395;50.752;4.268;2022-12-20T03:55:11;5.88;;;2.40;;
25481;SDS011;13395;50.752;4.268;2022-12-20T03:57:37;5.15;;;3.17;;
25481;SDS011;13395;50.752;4.268;2022-12-20T04:00:03;4.47;;;3.05;;
25481;SDS011;13395;50.752;4.268;2022-12-20T04:02:30;5.20;;;2.47;;
25481;SDS011;13395;50.752;4.268;2022-12-20T04:04:56;4.70;;;1.85;;
25481;SDS011;13395;50.752;4.268;2022-12-20T04:07:21;7.45;;;1.90;;
25481;SDS011;13395;50.752;4.268;2022-12-20T04:09:47;3.03;;;1.50;;
25481;SDS011;13395;50.752;4.268;2022-12-20T04:12:13;5.65;;;2.17;;
25481;SDS011;13395;50.752;4.268;2022-12-20T04:14:38;5.38;;;1.77;;
25481;SDS011;13395;50.752;4.268;2022-12-20T04:17:04;2.45;;;1.85;;
25481;SDS011;13395;50.752;4.268;2022-12-20T04:19:29;2.65;;;1.63;;
25481;SDS011;13395;50.752;4.268;2022-12-20T04:21:55;3.38;;;1.75;;
25481;SDS011;13395;50.752;4.268;2022-12-20T04:24:22;5.63;;;1.95;;
25481;SDS011;13395;50.752;4.268;2022-12-20T04:26:48;3.08;;;1.30;;
25481;SDS011;13395;50.752;4.268;2022-12-20T04:29:14;2.58;;;1.40;;
25481;SDS011;13395;50.752;4.268;2022-12-20T04:31:39;3.53;;;1.50;;
25481;SDS011;13395;50.752;4.268;2022-12-20T04:34:06;4.70;;;1.33;;
25481;SDS011;13395;50.752;4.268;2022-12-20T04:36:31;4.97;;;1.50;;
25481;SDS011;13395;50.752;4.268;2022-12-20T04:38:57;4.82;;;1.75;;
25481;SDS011;13395;50.752;4.268;2022-12-20T04:41:22;3.58;;;1.80;;
25481;SDS011;13395;50.752;4.268;2022-12-20T04:43:49;6.00;;;1.60;;
25481;SDS011;13395;50.752;4.268;2022-12-20T04:46:17;6.35;;;1.70;;
25481;SDS011;13395;50.752;4.268;2022-12-20T04:48:43;2.60;;;1.50;;
25481;SDS011;13395;50.752;4.268;2022-12-20T04:51:09;4.13;;;1.85;;
25481;SDS011;13395;50.752;4.268;2022-12-20T04:53:35;3.28;;;1.50;;
25481;SDS011;13395;50.752;4.268;2022-12-20T04:56:25;4.40;;;1.55;;
25481;SDS011;13395;50.752;4.268;2022-12-20T04:58:53;4.13;;;1.10;;
25481;SDS011;13395;50.752;4.268;2022-12-20T05:01:20;3.28;;;1.50;;
25481;SDS011;13395;50.752;4.268;2022-12-20T05:03:46;5.75;;;1.63;;
25481;SDS011;13395;50.752;4.268;2022-12-20T05:06:13;4.13;;;1.85;;
25481;SDS011;13395;50.752;4.268;2022-12-20T05:08:39;2.55;;;1.25;;
25481;SDS011;13395;50.752;4.268;2022-12-20T05:11:05;8.98;;;1.90;;
25481;SDS011;13395;50.752;4.268;2022-12-20T05:13:31;3.45;;;1.30;;
25481;SDS011;13395;50.752;4.268;2022-12-20T05:15:58;5.00;;;1.65;;
25481;SDS011;13395;50.752;4.268;2022-12-20T05:18:24;3.05;;;1.77;;
25481;SDS011;13395;50.752;4.268;2022-12-20T05:20:50;3.60;;;1.33;;
25481;SDS011;13395;50.752;4.268;2022-12-20T05:23:39;1.42;;;1.10;;
25481;SDS011;13395;50.752;4.268;2022-12-20T05:26:23;2.78;;;1.50;;
25481;SDS011;13395;50.752;4.268;2022-12-20T05:28:50;2.45;;;1.30;;
25481;SDS011;13395;50.752;4.268;2022-12-20T05:31:16;2.10;;;1.38;;
25481;SDS011;13395;50.752;4.268;2022-12-20T05:33:42;3.50;;;1.27;;
25481;SDS011;13395;50.752;4.268;2022-12-20T05:36:07;3.17;;;1.50;;
25481;SDS011;13395;50.752;4.268;2022-12-20T05:38:33;1.83;;;1.20;;
25481;SDS011;13395;50.752;4.268;2022-12-20T05:40:59;2.30;;;1.30;;
25481;SDS011;13395;50.752;4.268;2022-12-20T05:43:25;6.25;;;1.67;;
25481;SDS011;13395;50.752;4.268;2022-12-20T05:45:51;2.97;;;1.20;;
25481;SDS011;13395;50.752;4.268;2022-12-20T05:48:17;3.72;;;1.50;;
25481;SDS011;13395;50.752;4.268;2022-12-20T05:50:44;1.80;;;1.27;;
25481;SDS011;13395;50.752;4.268;2022-12-20T05:53:11;1.27;;;1.00;;
25481;SDS011;13395;50.752;4.268;2022-12-20T05:55:44;2.75;;;1.20;;
25481;SDS011;13395;50.752;4.268;2022-12-20T05:58:12;2.58;;;1.35;;
25481;SDS011;13395;50.752;4.268;2022-12-20T06:00:42;5.22;;;1.17;;
25481;SDS011;13395;50.752;4.268;2022-12-20T06:03:09;4.38;;;0.90;;
25481;SDS011;13395;50.752;4.268;2022-12-20T06:05:36;1.90;;;1.13;;
25481;SDS011;13395;50.752;4.268;2022-12-20T06:08:06;2.35;;;0.90;;
25481;SDS011;13395;50.752;4.268;2022-12-20T06:10:32;3.33;;;1.10;;
25481;SDS011;13395;50.752;4.268;2022-12-20T06:12:59;4.70;;;1.40;;
25481;SDS011;13395;50.752;4.268;2022-12-20T06:15:29;2.72;;;1.27;;
25481;SDS011;13395;50.752;4.268;2022-12-20T06:17:54;3.17;;;1.10;;
25481;SDS011;13395;50.752;4.268;2022-12-20T06:20:21;4.25;;;1.00;;
25481;SDS011;13395;50.752;4.268;2022-12-20T06:22:46;4.10;;;1.45;;
25481;SDS011;13395;50.752;4.268;2022-12-20T06:25:12;1.83;;;0.90;;
25481;SDS011;13395;50.752;4.268;2022-12-20T06:27:39;3.85;;;1.33;;
25481;SDS011;13395;50.752;4.268;2022-12-20T06:30:05;3.00;;;1.23;;
25481;SDS011;13395;50.752;4.268;2022-12-20T06:32:32;2.40;;;1.15;;
25481;SDS011;13395;50.752;4.268;2022-12-20T06:34:58;6.13;;;1.30;;
25481;SDS011;13395;50.752;4.268;2022-12-20T06:37:23;1.88;;;1.08;;
25481;SDS011;13395;50.752;4.268;2022-12-20T06:39:49;4.97;;;1.20;;
25481;SDS011;13395;50.752;4.268;2022-12-20T06:42:15;3.38;;;1.45;;
25481;SDS011;13395;50.752;4.268;2022-12-20T06:44:40;6.82;;;1.50;;
25481;SDS011;13395;50.752;4.268;2022-12-20T06:47:06;4.95;;;1.30;;
25481;SDS011;13395;50.752;4.268;2022-12-20T06:49:32;2.30;;;1.20;;
25481;SDS011;13395;50.752;4.268;2022-12-20T06:51:57;2.55;;;1.02;;
25481;SDS011;13395;50.752;4.268;2022-12-20T06:54:23;1.95;;;1.33;;
25481;SDS011;13395;50.752;4.268;2022-12-20T06:56:48;3.58;;;1.30;;
25481;SDS011;13395;50.752;4.268;2022-12-20T06:59:14;2.85;;;1.40;;
25481;SDS011;13395;50.752;4.268;2022-12-20T07:01:40;3.10;;;1.20;;
25481;SDS011;13395;50.752;4.268;2022-12-20T07:04:05;4.25;;;1.13;;
25481;SDS011;13395;50.752;4.268;2022-12-20T07:06:31;3.58;;;1.30;;
25481;SDS011;13395;50.752;4.268;2022-12-20T07:08:56;3.40;;;1.40;;
25481;SDS011;13395;50.752;4.268;2022-12-20T07:11:22;3.10;;;1.70;;
25481;SDS011;13395;50.752;4.268;2022-12-20T07:13:48;4.55;;;1.58;;
25481;SDS011;13395;50.752;4.268;2022-12-20T07:16:14;3.92;;;1.85;;
25481;SDS011;13395;50.752;4.268;2022-12-20T07:18:40;2.05;;;1.20;;
25481;SDS011;13395;50.752;4.268;2022-12-20T07:21:05;6.88;;;1.70;;
25481;SDS011;13395;50.752;4.268;2022-12-20T07:23:31;3.53;;;1.70;;
25481;SDS011;13395;50.752;4.268;2022-12-20T07:25:58;5.72;;;1.80;;
25481;SDS011;13395;50.752;4.268;2022-12-20T07:28:26;5.07;;;2.35;;
25481;SDS011;13395;50.752;4.268;2022-12-20T07:30:52;4.22;;;2.20;;
25481;SDS011;13395;50.752;4.268;2022-12-20T07:33:18;2.72;;;1.98;;
25481;SDS011;13395;50.752;4.268;2022-12-20T07:35:44;6.38;;;2.17;;
25481;SDS011;13395;50.752;4.268;2022-12-20T07:38:13;6.55;;;3.97;;
25481;SDS011;13395;50.752;4.268;2022-12-20T07:40:40;4.57;;;2.05;;
25481;SDS011;13395;50.752;4.268;2022-12-20T07:43:06;3.03;;;1.80;;
25481;SDS011;13395;50.752;4.268;2022-12-20T07:45:32;6.18;;;1.95;;
25481;SDS011;13395;50.752;4.268;2022-12-20T07:47:58;4.40;;;1.70;;
25481;SDS011;13395;50.752;4.268;2022-12-20T07:50:25;4.57;;;1.70;;
25481;SDS011;13395;50.752;4.268;2022-12-20T07:52:51;7.70;;;2.20;;
25481;SDS011;13395;50.752;4.268;2022-12-20T07:55:18;3.45;;;2.25;;
25481;SDS011;13395;50.752;4.268;2022-12-20T07:57:48;5.22;;;1.90;;
25481;SDS011;13395;50.752;4.268;2022-12-20T08:00:18;4.60;;;1.77;;
25481;SDS011;13395;50.752;4.268;2022-12-20T08:05:39;4.38;;;1.95;;
25481;SDS011;13395;50.752;4.268;2022-12-20T08:08:09;6.22;;;2.00;;
25481;SDS011;13395;50.752;4.268;2022-12-20T08:10:36;9.75;;;1.88;;
25481;SDS011;13395;50.752;4.268;2022-12-20T08:13:02;3.20;;;1.60;;
25481;SDS011;13395;50.752;4.268;2022-12-20T08:15:29;5.70;;;1.80;;
25481;SDS011;13395;50.752;4.268;2022-12-20T08:17:54;2.38;;;1.52;;
25481;SDS011;13395;50.752;4.268;2022-12-20T08:20:20;4.38;;;1.65;;
25481;SDS011;13395;50.752;4.268;2022-12-20T08:22:46;4.28;;;1.75;;
25481;SDS011;13395;50.752;4.268;2022-12-20T08:25:11;5.65;;;2.08;;
25481;SDS011;13395;50.752;4.268;2022-12-20T08:27:37;6.90;;;1.80;;
25481;SDS011;13395;50.752;4.268;2022-12-20T08:30:03;5.22;;;1.85;;
25481;SDS011;13395;50.752;4.268;2022-12-20T08:32:29;3.20;;;1.85;;
25481;SDS011;13395;50.752;4.268;2022-12-20T08:34:55;6.13;;;2.40;;
25481;SDS011;13395;50.752;4.268;2022-12-20T08:37:20;4.03;;;2.25;;
25481;SDS011;13395;50.752;4.268;2022-12-20T08:39:46;6.22;;;3.40;;
25481;SDS011;13395;50.752;4.268;2022-12-20T08:42:12;11.05;;;5.43;;
25481;SDS011;13395;50.752;4.268;2022-12-20T08:44:37;3.75;;;1.70;;
25481;SDS011;13395;50.752;4.268;2022-12-20T08:47:03;5.78;;;2.88;;
25481;SDS011;13395;50.752;4.268;2022-12-20T08:49:28;5.63;;;2.90;;
25481;SDS011;13395;50.752;4.268;2022-12-20T08:51:54;3.60;;;1.98;;
25481;SDS011;13395;50.752;4.268;2022-12-20T08:54:20;8.63;;;2.63;;
25481;SDS011;13395;50.752;4.268;2022-12-20T08:56:45;6.13;;;2.50;;
25481;SDS011;13395;50.752;4.268;2022-12-20T08:59:11;13.05;;;3.85;;
25481;SDS011;13395;50.752;4.268;2022-12-20T09:01:37;5.30;;;2.75;;
25481;SDS011;13395;50.752;4.268;2022-12-20T09:04:02;8.98;;;3.53;;
25481;SDS011;13395;50.752;4.268;2022-12-20T09:06:28;5.93;;;2.90;;
25481;SDS011;13395;50.752;4.268;2022-12-20T09:08:54;6.38;;;2.55;;
25481;SDS011;13395;50.752;4.268;2022-12-20T09:11:23;7.60;;;3.08;;
25481;SDS011;13395;50.752;4.268;2022-12-20T09:13:50;5.82;;;2.90;;
25481;SDS011;13395;50.752;4.268;2022-12-20T09:16:19;2.60;;;1.42;;
25481;SDS011;13395;50.752;4.268;2022-12-20T09:18:50;4.65;;;1.90;;
25481;SDS011;13395;50.752;4.268;2022-12-20T09:21:17;5.22;;;2.10;;
25481;SDS011;13395;50.752;4.268;2022-12-20T09:23:44;8.75;;;2.17;;
25481;SDS011;13395;50.752;4.268;2022-12-20T09:26:10;9.57;;;1.63;;
25481;SDS011;13395;50.752;4.268;2022-12-20T09:28:37;3.40;;;1.58;;
25481;SDS011;13395;50.752;4.268;2022-12-20T09:31:04;5.07;;;1.77;;
25481;SDS011;13395;50.752;4.268;2022-12-20T09:33:31;2.95;;;1.60;;
25481;SDS011;13395;50.752;4.268;2022-12-20T09:35:59;2.90;;;2.00;;
25481;SDS011;13395;50.752;4.268;2022-12-20T09:38:26;3.53;;;2.00;;
25481;SDS011;13395;50.752;4.268;2022-12-20T09:40:54;3.50;;;2.10;;
25481;SDS011;13395;50.752;4.268;2022-12-20T09:43:22;5.20;;;2.00;;
25481;SDS011;13395;50.752;4.268;2022-12-20T09:45:53;3.75;;;2.13;;
25481;SDS011;13395;50.752;4.268;2022-12-20T09:48:23;4.57;;;2.35;;
25481;SDS011;13395;50.752;4.268;2022-12-20T09:50:57;8.25;;;2.42;;
25481;SDS011;13395;50.752;4.268;2022-12-20T09:56:24;3.30;;;1.85;;
25481;SDS011;13395;50.752;4.268;2022-12-20T09:58:57;3.13;;;2.03;;
25481;SDS011;13395;50.752;4.268;2022-12-20T10:01:29;5.38;;;1.90;;
25481;SDS011;13395;50.752;4.268;2022-12-20T10:03:57;7.53;;;2.30;;
25481;SDS011;13395;50.752;4.268;2022-12-20T10:08:59;4.25;;;2.17;;
25481;SDS011;13395;50.752;4.268;2022-12-20T10:17:18;5.45;;;2.33;;
25481;SDS011;13395;50.752;4.268;2022-12-20T10:27:42;9.38;;;3.97;;
25481;SDS011;13395;50.752;4.268;2022-12-20T10:30:12;5.03;;;2.28;;
25481;SDS011;13395;50.752;4.268;2022-12-20T10:32:46;4.55;;;2.83;;
25481;SDS011;13395;50.752;4.268;2022-12-20T10:38:08;5.03;;;3.17;;
25481;SDS011;13395;50.752;4.268;2022-12-20T10:40:58;4.70;;;2.95;;
25481;SDS011;13395;50.752;4.268;2022-12-20T10:43:26;10.55;;;4.88;;
25481;SDS011;13395;50.752;4.268;2022-12-20T10:46:00;4.78;;;2.72;;
25481;SDS011;13395;50.752;4.268;2022-12-20T10:53:23;4.60;;;2.90;;
25481;SDS011;13395;50.752;4.268;2022-12-20T10:55:51;5.65;;;3.38;;
25481;SDS011;13395;50.752;4.268;2022-12-20T11:01:02;5.30;;;2.58;;
25481;SDS011;13395;50.752;4.268;2022-12-20T11:03:50;5.55;;;2.55;;
25481;SDS011;13395;50.752;4.268;2022-12-20T11:06:18;6.95;;;3.00;;
25481;SDS011;13395;50.752;4.268;2022-12-20T11:08:45;9.15;;;6.05;;
25481;SDS011;13395;50.752;4.268;2022-12-20T11:11:13;6.80;;;3.10;;
25481;SDS011;13395;50.752;4.268;2022-12-20T11:13:44;9.07;;;5.60;;
25481;SDS011;13395;50.752;4.268;2022-12-20T11:24:48;6.38;;;2.85;;
25481;SDS011;13395;50.752;4.268;2022-12-20T11:27:29;5.80;;;2.70;;
25481;SDS011;13395;50.752;4.268;2022-12-20T11:30:22;7.90;;;3.15;;
25481;SDS011;13395;50.752;4.268;2022-12-20T11:52:07;7.65;;;2.72;;
25481;SDS011;13395;50.752;4.268;2022-12-20T11:54:57;6.15;;;3.00;;
25481;SDS011;13395;50.752;4.268;2022-12-20T12:00:29;4.35;;;2.50;;
25481;SDS011;13395;50.752;4.268;2022-12-20T12:03:13;11.68;;;3.42;;
25481;SDS011;13395;50.752;4.268;2022-12-20T12:05:44;9.52;;;3.30;;
25481;SDS011;13395;50.752;4.268;2022-12-20T12:08:24;5.22;;;2.65;;
25481;SDS011;13395;50.752;4.268;2022-12-20T12:11:07;4.15;;;2.60;;
25481;SDS011;13395;50.752;4.268;2022-12-20T12:13:39;4.97;;;3.15;;
25481;SDS011;13395;50.752;4.268;2022-12-20T12:18:37;6.15;;;2.72;;
25481;SDS011;13395;50.752;4.268;2022-12-20T12:21:21;14.10;;;5.55;;
25481;SDS011;13395;50.752;4.268;2022-12-20T12:23:53;7.00;;;4.57;;
25481;SDS011;13395;50.752;4.268;2022-12-20T12:26:32;6.00;;;3.10;;
25481;SDS011;13395;50.752;4.268;2022-12-20T12:29:05;4.75;;;3.33;;
25481;SDS011;13395;50.752;4.268;2022-12-20T12:31:42;7.97;;;3.25;;
25481;SDS011;13395;50.752;4.268;2022-12-20T12:44:53;6.35;;;3.20;;
25481;SDS011;13395;50.752;4.268;2022-12-20T12:47:31;5.55;;;3.65;;
25481;SDS011;13395;50.752;4.268;2022-12-20T12:50:07;7.18;;;3.65;;
25481;SDS011;13395;50.752;4.268;2022-12-20T12:58:13;9.85;;;3.95;;
25481;SDS011;13395;50.752;4.268;2022-12-20T13:11:32;11.15;;;5.03;;
25481;SDS011;13395;50.752;4.268;2022-12-20T13:16:41;8.77;;;3.67;;
25481;SDS011;13395;50.752;4.268;2022-12-20T13:22:14;5.45;;;3.70;;
25481;SDS011;13395;50.752;4.268;2022-12-20T13:24:57;7.50;;;4.00;;
25481;SDS011;13395;50.752;4.268;2022-12-20T13:37:52;11.35;;;5.15;;
25481;SDS011;13395;50.752;4.268;2022-12-20T13:40:18;11.75;;;6.13;;
25481;SDS011;13395;50.752;4.268;2022-12-20T13:45:53;8.77;;;4.20;;
25481;SDS011;13395;50.752;4.268;2022-12-20T13:48:26;9.63;;;5.13;;
25481;SDS011;13395;50.752;4.268;2022-12-20T13:51:06;11.15;;;5.00;;
25481;SDS011;13395;50.752;4.268;2022-12-20T13:53:33;10.93;;;5.43;;
25481;SDS011;13395;50.752;4.268;2022-12-20T13:56:15;8.15;;;5.28;;
25481;SDS011;13395;50.752;4.268;2022-12-20T13:58:50;9.68;;;5.22;;
25481;SDS011;13395;50.752;4.268;2022-12-20T14:01:17;10.48;;;5.50;;
25481;SDS011;13395;50.752;4.268;2022-12-20T14:03:47;10.90;;;5.20;;
25481;SDS011;13395;50.752;4.268;2022-12-20T14:06:13;12.20;;;6.55;;
25481;SDS011;13395;50.752;4.268;2022-12-20T14:08:49;9.15;;;5.43;;
25481;SDS011;13395;50.752;4.268;2022-12-20T14:11:20;10.73;;;4.60;;
25481;SDS011;13395;50.752;4.268;2022-12-20T14:14:01;11.85;;;5.68;;
25481;SDS011;13395;50.752;4.268;2022-12-20T14:16:29;7.95;;;4.40;;
25481;SDS011;13395;50.752;4.268;2022-12-20T14:21:22;12.90;;;5.93;;
25481;SDS011;13395;50.752;4.268;2022-12-20T14:23:50;8.00;;;5.63;;
25481;SDS011;13395;50.752;4.268;2022-12-20T14:26:20;12.98;;;5.70;;
25481;SDS011;13395;50.752;4.268;2022-12-20T14:29:15;8.20;;;5.15;;
25481;SDS011;13395;50.752;4.268;2022-12-20T14:31:48;13.77;;;5.47;;
25481;SDS011;13395;50.752;4.268;2022-12-20T14:34:16;10.77;;;5.38;;
25481;SDS011;13395;50.752;4.268;2022-12-20T14:36:47;8.25;;;6.07;;
25481;SDS011;13395;50.752;4.268;2022-12-20T14:44:31;12.27;;;5.70;;
25481;SDS011;13395;50.752;4.268;2022-12-20T14:46:58;8.95;;;5.43;;
25481;SDS011;13395;50.752;4.268;2022-12-20T14:49:39;7.90;;;5.88;;
25481;SDS011;13395;50.752;4.268;2022-12-20T14:52:24;9.65;;;6.25;;
25481;SDS011;13395;50.752;4.268;2022-12-20T14:57:24;12.60;;;5.50;;
25481;SDS011;13395;50.752;4.268;2022-12-20T15:00:53;9.32;;;5.55;;
25481;SDS011;13395;50.752;4.268;2022-12-20T15:02:49;9.13;;;6.68;;
25481;SDS011;13395;50.752;4.268;2022-12-20T15:10:48;10.15;;;5.78;;
25481;SDS011;13395;50.752;4.268;2022-12-20T15:15:45;9.30;;;5.97;;
25481;SDS011;13395;50.752;4.268;2022-12-20T15:18:11;10.60;;;6.40;;
25481;SDS011;13395;50.752;4.268;2022-12-20T15:20:38;13.90;;;6.43;;
25481;SDS011;13395;50.752;4.268;2022-12-20T15:25:40;10.38;;;5.88;;
25481;SDS011;13395;50.752;4.268;2022-12-20T15:28:18;7.72;;;4.88;;
25481;SDS011;13395;50.752;4.268;2022-12-20T15:30:46;10.30;;;5.25;;
25481;SDS011;13395;50.752;4.268;2022-12-20T15:33:13;7.47;;;5.05;;
25481;SDS011;13395;50.752;4.268;2022-12-20T15:38:23;6.60;;;5.18;;
25481;SDS011;13395;50.752;4.268;2022-12-20T15:40:51;7.85;;;5.93;;
25481;SDS011;13395;50.752;4.268;2022-12-20T15:45:55;10.80;;;6.22;;
25481;SDS011;13395;50.752;4.268;2022-12-20T15:48:21;8.73;;;6.63;;
25481;SDS011;13395;50.752;4.268;2022-12-20T15:50:57;12.32;;;6.10;;
25481;SDS011;13395;50.752;4.268;2022-12-20T15:53:30;12.88;;;7.53;;
25481;SDS011;13395;50.752;4.268;2022-12-20T15:55:57;7.80;;;5.93;;
25481;SDS011;13395;50.752;4.268;2022-12-20T15:58:24;9.32;;;6.38;;
25481;SDS011;13395;50.752;4.268;2022-12-20T16:00:54;12.65;;;6.30;;
25481;SDS011;13395;50.752;4.268;2022-12-20T16:03:25;9.70;;;6.20;;
25481;SDS011;13395;50.752;4.268;2022-12-20T16:05:55;12.35;;;6.57;;
25481;SDS011;13395;50.752;4.268;2022-12-20T16:08:21;9.80;;;6.55;;
25481;SDS011;13395;50.752;4.268;2022-12-20T16:10:48;11.82;;;6.70;;
25481;SDS011;13395;50.752;4.268;2022-12-20T16:13:19;11.75;;;7.55;;
25481;SDS011;13395;50.752;4.268;2022-12-20T16:15:46;11.25;;;7.50;;
25481;SDS011;13395;50.752;4.268;2022-12-20T16:18:12;9.07;;;6.80;;
25481;SDS011;13395;50.752;4.268;2022-12-20T16:20:37;7.93;;;6.35;;
25481;SDS011;13395;50.752;4.268;2022-12-20T16:23:04;11.00;;;7.72;;
25481;SDS011;13395;50.752;4.268;2022-12-20T16:25:36;23.10;;;11.35;;
25481;SDS011;13395;50.752;4.268;2022-12-20T16:28:01;13.50;;;9.27;;
25481;SDS011;13395;50.752;4.268;2022-12-20T16:30:27;16.63;;;10.70;;
25481;SDS011;13395;50.752;4.268;2022-12-20T16:32:53;26.17;;;17.77;;
25481;SDS011;13395;50.752;4.268;2022-12-20T16:35:30;14.85;;;10.90;;
25481;SDS011;13395;50.752;4.268;2022-12-20T16:40:24;14.18;;;9.90;;
25481;SDS011;13395;50.752;4.268;2022-12-20T16:42:51;17.92;;;13.73;;
25481;SDS011;13395;50.752;4.268;2022-12-20T16:45:19;13.05;;;7.18;;
25481;SDS011;13395;50.752;4.268;2022-12-20T16:47:48;17.50;;;11.98;;
25481;SDS011;13395;50.752;4.268;2022-12-20T16:50:14;20.17;;;13.57;;
25481;SDS011;13395;50.752;4.268;2022-12-20T16:52:41;16.00;;;12.48;;
25481;SDS011;13395;50.752;4.268;2022-12-20T16:55:14;14.35;;;9.18;;
25481;SDS011;13395;50.752;4.268;2022-12-20T16:57:45;15.75;;;10.00;;
25481;SDS011;13395;50.752;4.268;2022-12-20T17:00:14;10.23;;;7.35;;
25481;SDS011;13395;50.752;4.268;2022-12-20T17:02:45;15.27;;;10.73;;
25481;SDS011;13395;50.752;4.268;2022-12-20T17:05:16;13.27;;;8.85;;
25481;SDS011;13395;50.752;4.268;2022-12-20T17:07:45;14.68;;;9.27;;
25481;SDS011;13395;50.752;4.268;2022-12-20T17:10:11;11.23;;;8.00;;
25481;SDS011;13395;50.752;4.268;2022-12-20T17:12:37;13.00;;;9.35;;
25481;SDS011;13395;50.752;4.268;2022-12-20T17:15:03;15.27;;;9.68;;
25481;SDS011;13395;50.752;4.268;2022-12-20T17:17:29;12.90;;;9.55;;
25481;SDS011;13395;50.752;4.268;2022-12-20T17:19:54;15.77;;;11.15;;
25481;SDS011;13395;50.752;4.268;2022-12-20T17:22:20;17.15;;;9.57;;
25481;SDS011;13395;50.752;4.268;2022-12-20T17:24:46;12.68;;;9.02;;